Terminal Aerodrome Forecast
Issued by NWS Rapid City, SD

Home | Current Version | Previous Version | Text Only | Print | Product List | Glossary Off
Versions: 1 2 3 4 5 6 7 8 9 10 11 12 13 14

950
FTUS43 KUNR 031019 AAB
TAFRAP
TAF AMD
KRAP 031019Z 0310/0406 32006KT 5SM -SN OVC035
     FM031500 34015KT P6SM BKN050=

USA.gov is the U.S. government's official web portal to all federal, state and local government web resources and services.